sensor_id;sensor_type;location;lat;lon;timestamp;P1;durP1;ratioP1;P2;durP2;ratioP2
32445;SDS011;18899;50.748;7.102;2023-01-13T00:01:16;0.52;;;0.30;;
32445;SDS011;18899;50.748;7.102;2023-01-13T00:03:47;0.40;;;0.28;;
32445;SDS011;18899;50.748;7.102;2023-01-13T00:06:17;0.60;;;0.30;;
32445;SDS011;18899;50.748;7.102;2023-01-13T00:08:46;0.38;;;0.30;;
32445;SDS011;18899;50.748;7.102;2023-01-13T00:11:13;0.40;;;0.30;;
32445;SDS011;18899;50.748;7.102;2023-01-13T00:13:39;0.82;;;0.47;;
32445;SDS011;18899;50.748;7.102;2023-01-13T00:16:05;0.77;;;0.40;;
32445;SDS011;18899;50.748;7.102;2023-01-13T00:18:33;0.30;;;0.22;;
32445;SDS011;18899;50.748;7.102;2023-01-13T00:21:01;0.47;;;0.30;;
32445;SDS011;18899;50.748;7.102;2023-01-13T00:23:30;0.30;;;0.30;;
32445;SDS011;18899;50.748;7.102;2023-01-13T00:25:58;0.30;;;0.30;;
32445;SDS011;18899;50.748;7.102;2023-01-13T00:28:24;0.30;;;0.20;;
32445;SDS011;18899;50.748;7.102;2023-01-13T00:30:50;1.10;;;0.30;;
32445;SDS011;18899;50.748;7.102;2023-01-13T00:33:16;0.70;;;0.40;;
32445;SDS011;18899;50.748;7.102;2023-01-13T00:35:41;0.40;;;0.30;;
32445;SDS011;18899;50.748;7.102;2023-01-13T00:38:07;0.98;;;0.30;;
32445;SDS011;18899;50.748;7.102;2023-01-13T00:40:32;0.40;;;0.25;;
32445;SDS011;18899;50.748;7.102;2023-01-13T00:42:58;0.75;;;0.38;;
32445;SDS011;18899;50.748;7.102;2023-01-13T00:45:42;0.30;;;0.30;;
32445;SDS011;18899;50.748;7.102;2023-01-13T00:48:08;0.32;;;0.30;;
32445;SDS011;18899;50.748;7.102;2023-01-13T00:50:34;0.65;;;0.30;;
32445;SDS011;18899;50.748;7.102;2023-01-13T00:52:59;0.30;;;0.30;;
32445;SDS011;18899;50.748;7.102;2023-01-13T00:55:25;0.40;;;0.30;;
32445;SDS011;18899;50.748;7.102;2023-01-13T00:57:51;0.50;;;0.40;;
32445;SDS011;18899;50.748;7.102;2023-01-13T01:00:16;0.30;;;0.30;;
32445;SDS011;18899;50.748;7.102;2023-01-13T01:02:42;0.20;;;0.20;;
32445;SDS011;18899;50.748;7.102;2023-01-13T01:05:08;0.30;;;0.20;;
32445;SDS011;18899;50.748;7.102;2023-01-13T01:07:34;0.50;;;0.40;;
32445;SDS011;18899;50.748;7.102;2023-01-13T01:10:00;0.30;;;0.22;;
32445;SDS011;18899;50.748;7.102;2023-01-13T01:12:25;0.40;;;0.30;;
32445;SDS011;18899;50.748;7.102;2023-01-13T01:14:51;0.55;;;0.40;;
32445;SDS011;18899;50.748;7.102;2023-01-13T01:17:16;0.82;;;0.30;;
32445;SDS011;18899;50.748;7.102;2023-01-13T01:19:42;0.47;;;0.30;;
32445;SDS011;18899;50.748;7.102;2023-01-13T01:22:08;2.65;;;0.30;;
32445;SDS011;18899;50.748;7.102;2023-01-13T01:24:33;1.17;;;0.30;;
32445;SDS011;18899;50.748;7.102;2023-01-13T01:26:59;0.40;;;0.30;;
32445;SDS011;18899;50.748;7.102;2023-01-13T01:29:24;0.40;;;0.30;;
32445;SDS011;18899;50.748;7.102;2023-01-13T01:31:50;0.80;;;0.32;;
32445;SDS011;18899;50.748;7.102;2023-01-13T01:34:15;0.32;;;0.30;;
32445;SDS011;18899;50.748;7.102;2023-01-13T01:36:41;0.65;;;0.40;;
32445;SDS011;18899;50.748;7.102;2023-01-13T01:39:06;2.08;;;0.40;;
32445;SDS011;18899;50.748;7.102;2023-01-13T01:41:33;0.95;;;0.40;;
32445;SDS011;18899;50.748;7.102;2023-01-13T01:44:01;3.30;;;0.52;;
32445;SDS011;18899;50.748;7.102;2023-01-13T01:46:49;2.47;;;0.50;;
32445;SDS011;18899;50.748;7.102;2023-01-13T01:49:23;1.95;;;0.55;;
32445;SDS011;18899;50.748;7.102;2023-01-13T01:51:56;6.13;;;0.60;;
32445;SDS011;18899;50.748;7.102;2023-01-13T01:55:06;0.65;;;0.40;;
32445;SDS011;18899;50.748;7.102;2023-01-13T01:57:38;1.45;;;0.40;;
32445;SDS011;18899;50.748;7.102;2023-01-13T02:00:26;0.90;;;0.50;;
32445;SDS011;18899;50.748;7.102;2023-01-13T02:02:52;1.52;;;0.50;;
32445;SDS011;18899;50.748;7.102;2023-01-13T02:05:20;1.45;;;0.40;;
32445;SDS011;18899;50.748;7.102;2023-01-13T02:07:46;1.45;;;0.40;;
32445;SDS011;18899;50.748;7.102;2023-01-13T02:10:14;0.50;;;0.40;;
32445;SDS011;18899;50.748;7.102;2023-01-13T02:12:43;1.38;;;0.40;;
32445;SDS011;18899;50.748;7.102;2023-01-13T02:36:03;0.50;;;0.30;;
32445;SDS011;18899;50.748;7.102;2023-01-13T02:41:33;1.15;;;0.50;;
32445;SDS011;18899;50.748;7.102;2023-01-13T02:44:45;1.42;;;0.40;;
32445;SDS011;18899;50.748;7.102;2023-01-13T02:47:19;1.23;;;0.40;;
32445;SDS011;18899;50.748;7.102;2023-01-13T02:49:54;2.35;;;0.50;;
32445;SDS011;18899;50.748;7.102;2023-01-13T02:52:31;1.98;;;0.50;;
32445;SDS011;18899;50.748;7.102;2023-01-13T02:55:08;1.35;;;0.50;;
32445;SDS011;18899;50.748;7.102;2023-01-13T02:57:39;1.10;;;0.60;;
32445;SDS011;18899;50.748;7.102;2023-01-13T03:00:06;0.70;;;0.40;;
32445;SDS011;18899;50.748;7.102;2023-01-13T03:02:33;1.55;;;0.40;;
32445;SDS011;18899;50.748;7.102;2023-01-13T03:04:59;0.90;;;0.45;;
32445;SDS011;18899;50.748;7.102;2023-01-13T03:15:42;0.30;;;0.30;;
32445;SDS011;18899;50.748;7.102;2023-01-13T03:21:05;1.73;;;0.60;;
32445;SDS011;18899;50.748;7.102;2023-01-13T03:31:58;3.10;;;0.60;;
32445;SDS011;18899;50.748;7.102;2023-01-13T03:34:33;3.13;;;0.50;;
32445;SDS011;18899;50.748;7.102;2023-01-13T03:37:22;2.28;;;0.75;;
32445;SDS011;18899;50.748;7.102;2023-01-13T03:39:54;3.67;;;0.95;;
32445;SDS011;18899;50.748;7.102;2023-01-13T03:42:24;3.05;;;0.57;;
32445;SDS011;18899;50.748;7.102;2023-01-13T03:47:53;1.90;;;0.80;;
32445;SDS011;18899;50.748;7.102;2023-01-13T03:50:30;5.78;;;1.17;;
32445;SDS011;18899;50.748;7.102;2023-01-13T03:53:10;3.85;;;0.82;;
32445;SDS011;18899;50.748;7.102;2023-01-13T03:55:40;6.35;;;0.75;;
32445;SDS011;18899;50.748;7.102;2023-01-13T03:58:13;3.95;;;0.70;;
32445;SDS011;18899;50.748;7.102;2023-01-13T04:03:51;5.47;;;1.00;;
32445;SDS011;18899;50.748;7.102;2023-01-13T04:11:59;5.65;;;1.00;;
32445;SDS011;18899;50.748;7.102;2023-01-13T04:14:34;3.58;;;0.70;;
32445;SDS011;18899;50.748;7.102;2023-01-13T04:17:00;9.32;;;1.42;;
32445;SDS011;18899;50.748;7.102;2023-01-13T04:19:25;6.00;;;1.05;;
32445;SDS011;18899;50.748;7.102;2023-01-13T04:21:51;3.88;;;0.90;;
32445;SDS011;18899;50.748;7.102;2023-01-13T04:24:17;8.50;;;0.80;;
32445;SDS011;18899;50.748;7.102;2023-01-13T04:26:42;10.43;;;1.73;;
32445;SDS011;18899;50.748;7.102;2023-01-13T04:29:07;8.70;;;1.10;;
32445;SDS011;18899;50.748;7.102;2023-01-13T04:31:33;7.88;;;1.08;;
32445;SDS011;18899;50.748;7.102;2023-01-13T04:33:59;7.38;;;1.08;;
32445;SDS011;18899;50.748;7.102;2023-01-13T04:36:25;9.82;;;1.40;;
32445;SDS011;18899;50.748;7.102;2023-01-13T04:38:51;8.00;;;1.63;;
32445;SDS011;18899;50.748;7.102;2023-01-13T04:41:20;4.90;;;0.98;;
32445;SDS011;18899;50.748;7.102;2023-01-13T04:43:45;10.48;;;1.73;;
32445;SDS011;18899;50.748;7.102;2023-01-13T04:46:11;17.17;;;1.35;;
32445;SDS011;18899;50.748;7.102;2023-01-13T04:48:37;13.00;;;1.77;;
32445;SDS011;18899;50.748;7.102;2023-01-13T04:51:02;9.30;;;1.60;;
32445;SDS011;18899;50.748;7.102;2023-01-13T04:53:28;12.77;;;1.58;;
32445;SDS011;18899;50.748;7.102;2023-01-13T04:55:54;13.85;;;1.60;;
32445;SDS011;18899;50.748;7.102;2023-01-13T04:58:19;6.20;;;1.25;;
32445;SDS011;18899;50.748;7.102;2023-01-13T05:00:45;8.73;;;1.35;;
32445;SDS011;18899;50.748;7.102;2023-01-13T05:03:10;7.97;;;1.48;;
32445;SDS011;18899;50.748;7.102;2023-01-13T05:05:36;9.63;;;1.92;;
32445;SDS011;18899;50.748;7.102;2023-01-13T05:08:02;8.88;;;1.45;;
32445;SDS011;18899;50.748;7.102;2023-01-13T05:10:29;6.75;;;2.05;;
32445;SDS011;18899;50.748;7.102;2023-01-13T05:12:54;8.10;;;1.15;;
32445;SDS011;18899;50.748;7.102;2023-01-13T05:15:39;14.32;;;1.27;;
32445;SDS011;18899;50.748;7.102;2023-01-13T05:18:23;5.85;;;0.77;;
32445;SDS011;18899;50.748;7.102;2023-01-13T05:20:49;7.55;;;1.52;;
32445;SDS011;18899;50.748;7.102;2023-01-13T05:23:15;10.65;;;2.17;;
32445;SDS011;18899;50.748;7.102;2023-01-13T05:26:00;10.80;;;1.70;;
32445;SDS011;18899;50.748;7.102;2023-01-13T05:28:29;5.03;;;1.27;;
32445;SDS011;18899;50.748;7.102;2023-01-13T05:30:56;6.75;;;2.00;;
32445;SDS011;18899;50.748;7.102;2023-01-13T05:33:21;7.13;;;1.10;;
32445;SDS011;18899;50.748;7.102;2023-01-13T05:35:47;8.50;;;2.22;;
32445;SDS011;18899;50.748;7.102;2023-01-13T05:38:13;6.85;;;1.10;;
32445;SDS011;18899;50.748;7.102;2023-01-13T05:40:40;10.57;;;1.67;;
32445;SDS011;18899;50.748;7.102;2023-01-13T05:43:24;7.72;;;1.25;;
32445;SDS011;18899;50.748;7.102;2023-01-13T05:45:57;6.10;;;1.50;;
32445;SDS011;18899;50.748;7.102;2023-01-13T05:48:31;6.82;;;1.10;;
32445;SDS011;18899;50.748;7.102;2023-01-13T05:51:02;5.28;;;1.40;;
32445;SDS011;18899;50.748;7.102;2023-01-13T05:53:29;7.57;;;1.25;;
32445;SDS011;18899;50.748;7.102;2023-01-13T05:55:55;7.35;;;1.23;;
32445;SDS011;18899;50.748;7.102;2023-01-13T05:58:21;4.68;;;0.90;;
32445;SDS011;18899;50.748;7.102;2023-01-13T06:00:48;6.97;;;1.30;;
32445;SDS011;18899;50.748;7.102;2023-01-13T06:03:14;5.72;;;1.13;;
32445;SDS011;18899;50.748;7.102;2023-01-13T06:05:40;7.78;;;1.05;;
32445;SDS011;18899;50.748;7.102;2023-01-13T06:08:06;8.45;;;1.73;;
32445;SDS011;18899;50.748;7.102;2023-01-13T06:10:33;13.18;;;1.60;;
32445;SDS011;18899;50.748;7.102;2023-01-13T06:12:59;9.85;;;1.27;;
32445;SDS011;18899;50.748;7.102;2023-01-13T06:15:25;9.00;;;1.13;;
32445;SDS011;18899;50.748;7.102;2023-01-13T06:17:50;9.90;;;1.10;;
32445;SDS011;18899;50.748;7.102;2023-01-13T06:20:16;4.03;;;0.75;;
32445;SDS011;18899;50.748;7.102;2023-01-13T06:22:43;5.80;;;1.08;;
32445;SDS011;18899;50.748;7.102;2023-01-13T06:25:25;5.40;;;1.02;;
32445;SDS011;18899;50.748;7.102;2023-01-13T06:27:53;12.43;;;1.35;;
32445;SDS011;18899;50.748;7.102;2023-01-13T06:30:20;11.57;;;1.40;;
32445;SDS011;18899;50.748;7.102;2023-01-13T06:32:48;8.43;;;1.13;;
32445;SDS011;18899;50.748;7.102;2023-01-13T06:35:19;8.43;;;1.20;;
32445;SDS011;18899;50.748;7.102;2023-01-13T06:37:49;10.98;;;1.40;;
32445;SDS011;18899;50.748;7.102;2023-01-13T06:40:17;5.88;;;1.00;;
32445;SDS011;18899;50.748;7.102;2023-01-13T06:42:44;4.35;;;0.93;;
32445;SDS011;18899;50.748;7.102;2023-01-13T06:45:28;3.05;;;0.90;;
32445;SDS011;18899;50.748;7.102;2023-01-13T06:47:55;12.43;;;1.50;;
32445;SDS011;18899;50.748;7.102;2023-01-13T06:50:23;5.65;;;1.38;;
32445;SDS011;18899;50.748;7.102;2023-01-13T06:52:49;5.85;;;1.00;;
32445;SDS011;18899;50.748;7.102;2023-01-13T06:55:15;9.32;;;1.40;;
32445;SDS011;18899;50.748;7.102;2023-01-13T06:57:59;2.90;;;1.05;;
32445;SDS011;18899;50.748;7.102;2023-01-13T07:00:25;7.30;;;1.05;;
32445;SDS011;18899;50.748;7.102;2023-01-13T07:02:51;8.43;;;1.30;;
32445;SDS011;18899;50.748;7.102;2023-01-13T07:05:17;3.47;;;0.93;;
32445;SDS011;18899;50.748;7.102;2023-01-13T07:07:43;7.28;;;1.02;;
32445;SDS011;18899;50.748;7.102;2023-01-13T07:10:10;5.82;;;1.17;;
32445;SDS011;18899;50.748;7.102;2023-01-13T07:12:38;8.73;;;1.23;;
32445;SDS011;18899;50.748;7.102;2023-01-13T07:15:24;5.57;;;1.05;;
32445;SDS011;18899;50.748;7.102;2023-01-13T07:17:50;7.55;;;0.90;;
32445;SDS011;18899;50.748;7.102;2023-01-13T07:20:16;5.20;;;1.10;;
32445;SDS011;18899;50.748;7.102;2023-01-13T07:22:43;9.25;;;1.20;;
32445;SDS011;18899;50.748;7.102;2023-01-13T07:25:09;6.47;;;0.90;;
32445;SDS011;18899;50.748;7.102;2023-01-13T07:27:35;3.85;;;0.60;;
32445;SDS011;18899;50.748;7.102;2023-01-13T07:30:00;6.68;;;0.80;;
32445;SDS011;18899;50.748;7.102;2023-01-13T07:32:26;2.90;;;0.77;;
32445;SDS011;18899;50.748;7.102;2023-01-13T07:34:52;2.05;;;0.90;;
32445;SDS011;18899;50.748;7.102;2023-01-13T07:37:17;3.25;;;0.98;;
32445;SDS011;18899;50.748;7.102;2023-01-13T07:39:43;6.75;;;0.80;;
32445;SDS011;18899;50.748;7.102;2023-01-13T07:42:09;1.40;;;0.45;;
32445;SDS011;18899;50.748;7.102;2023-01-13T07:44:53;3.55;;;0.80;;
32445;SDS011;18899;50.748;7.102;2023-01-13T07:47:18;0.85;;;0.60;;
32445;SDS011;18899;50.748;7.102;2023-01-13T07:49:47;6.70;;;1.08;;
32445;SDS011;18899;50.748;7.102;2023-01-13T07:52:13;7.45;;;1.90;;
32445;SDS011;18899;50.748;7.102;2023-01-13T07:54:38;6.22;;;0.98;;
32445;SDS011;18899;50.748;7.102;2023-01-13T07:57:04;6.82;;;1.38;;
32445;SDS011;18899;50.748;7.102;2023-01-13T07:59:29;4.28;;;0.98;;
32445;SDS011;18899;50.748;7.102;2023-01-13T08:01:55;3.13;;;0.90;;
32445;SDS011;18899;50.748;7.102;2023-01-13T08:04:20;3.20;;;1.05;;
32445;SDS011;18899;50.748;7.102;2023-01-13T08:06:46;4.38;;;0.98;;
32445;SDS011;18899;50.748;7.102;2023-01-13T08:09:13;2.42;;;0.77;;
32445;SDS011;18899;50.748;7.102;2023-01-13T08:11:39;4.40;;;0.68;;
32445;SDS011;18899;50.748;7.102;2023-01-13T08:14:04;5.38;;;0.80;;
32445;SDS011;18899;50.748;7.102;2023-01-13T08:16:31;2.70;;;0.80;;
32445;SDS011;18899;50.748;7.102;2023-01-13T08:18:57;4.35;;;0.65;;
32445;SDS011;18899;50.748;7.102;2023-01-13T08:21:23;5.28;;;1.10;;
32445;SDS011;18899;50.748;7.102;2023-01-13T08:23:48;2.58;;;0.70;;
32445;SDS011;18899;50.748;7.102;2023-01-13T08:26:15;2.65;;;1.00;;
32445;SDS011;18899;50.748;7.102;2023-01-13T08:28:41;4.40;;;0.88;;
32445;SDS011;18899;50.748;7.102;2023-01-13T08:31:09;2.00;;;0.80;;
32445;SDS011;18899;50.748;7.102;2023-01-13T08:33:36;3.78;;;1.20;;
32445;SDS011;18899;50.748;7.102;2023-01-13T08:36:03;7.13;;;1.10;;
32445;SDS011;18899;50.748;7.102;2023-01-13T08:38:33;7.53;;;1.27;;
32445;SDS011;18899;50.748;7.102;2023-01-13T08:40:59;4.80;;;1.17;;
32445;SDS011;18899;50.748;7.102;2023-01-13T08:43:25;9.00;;;1.35;;
32445;SDS011;18899;50.748;7.102;2023-01-13T08:45:58;3.70;;;1.30;;
32445;SDS011;18899;50.748;7.102;2023-01-13T08:48:25;4.05;;;1.02;;
32445;SDS011;18899;50.748;7.102;2023-01-13T08:50:52;7.65;;;1.23;;
32445;SDS011;18899;50.748;7.102;2023-01-13T08:53:18;6.80;;;1.20;;
32445;SDS011;18899;50.748;7.102;2023-01-13T08:55:44;8.23;;;1.17;;
32445;SDS011;18899;50.748;7.102;2023-01-13T08:58:10;9.52;;;1.95;;
32445;SDS011;18899;50.748;7.102;2023-01-13T09:00:36;8.75;;;1.60;;
32445;SDS011;18899;50.748;7.102;2023-01-13T09:03:02;11.48;;;1.63;;
32445;SDS011;18899;50.748;7.102;2023-01-13T09:05:27;7.80;;;1.77;;
32445;SDS011;18899;50.748;7.102;2023-01-13T09:07:53;13.02;;;1.73;;
32445;SDS011;18899;50.748;7.102;2023-01-13T09:10:18;10.95;;;1.92;;
32445;SDS011;18899;50.748;7.102;2023-01-13T09:12:44;8.85;;;1.65;;
32445;SDS011;18899;50.748;7.102;2023-01-13T09:15:28;11.82;;;2.17;;
32445;SDS011;18899;50.748;7.102;2023-01-13T09:17:54;8.50;;;2.17;;
32445;SDS011;18899;50.748;7.102;2023-01-13T09:20:19;6.45;;;1.55;;
32445;SDS011;18899;50.748;7.102;2023-01-13T09:22:45;10.30;;;2.22;;
32445;SDS011;18899;50.748;7.102;2023-01-13T09:25:10;12.20;;;1.65;;
32445;SDS011;18899;50.748;7.102;2023-01-13T09:27:36;12.65;;;2.08;;
32445;SDS011;18899;50.748;7.102;2023-01-13T09:30:02;7.80;;;1.95;;
32445;SDS011;18899;50.748;7.102;2023-01-13T09:32:28;11.20;;;1.38;;
32445;SDS011;18899;50.748;7.102;2023-01-13T09:34:54;13.70;;;2.05;;
32445;SDS011;18899;50.748;7.102;2023-01-13T09:37:43;10.82;;;1.67;;
32445;SDS011;18899;50.748;7.102;2023-01-13T09:40:17;9.80;;;1.40;;
32445;SDS011;18899;50.748;7.102;2023-01-13T09:45:38;11.80;;;2.10;;
32445;SDS011;18899;50.748;7.102;2023-01-13T09:48:17;5.90;;;1.25;;
32445;SDS011;18899;50.748;7.102;2023-01-13T09:55:56;12.65;;;1.60;;
32445;SDS011;18899;50.748;7.102;2023-01-13T09:58:22;5.35;;;1.42;;
32445;SDS011;18899;50.748;7.102;2023-01-13T10:03:38;8.02;;;1.38;;
32445;SDS011;18899;50.748;7.102;2023-01-13T10:06:47;10.57;;;1.50;;
32445;SDS011;18899;50.748;7.102;2023-01-13T10:09:00;6.97;;;1.38;;
32445;SDS011;18899;50.748;7.102;2023-01-13T10:11:28;6.95;;;1.58;;
32445;SDS011;18899;50.748;7.102;2023-01-13T10:14:27;10.38;;;2.20;;
32445;SDS011;18899;50.748;7.102;2023-01-13T10:20:02;11.07;;;2.10;;
32445;SDS011;18899;50.748;7.102;2023-01-13T10:25:34;9.40;;;2.00;;
32445;SDS011;18899;50.748;7.102;2023-01-13T10:28:10;10.63;;;1.30;;
32445;SDS011;18899;50.748;7.102;2023-01-13T10:30:41;5.07;;;1.42;;
32445;SDS011;18899;50.748;7.102;2023-01-13T10:33:18;9.18;;;1.88;;
32445;SDS011;18899;50.748;7.102;2023-01-13T10:38:17;14.55;;;1.75;;
32445;SDS011;18899;50.748;7.102;2023-01-13T10:40:48;9.73;;;1.63;;
32445;SDS011;18899;50.748;7.102;2023-01-13T10:43:18;7.78;;;1.80;;
32445;SDS011;18899;50.748;7.102;2023-01-13T10:48:19;14.23;;;2.33;;
32445;SDS011;18899;50.748;7.102;2023-01-13T10:50:44;14.73;;;2.33;;
32445;SDS011;18899;50.748;7.102;2023-01-13T10:53:16;9.95;;;1.95;;
32445;SDS011;18899;50.748;7.102;2023-01-13T10:56:02;10.50;;;1.83;;
32445;SDS011;18899;50.748;7.102;2023-01-13T10:58:38;10.45;;;2.28;;
32445;SDS011;18899;50.748;7.102;2023-01-13T11:01:04;10.80;;;1.92;;
32445;SDS011;18899;50.748;7.102;2023-01-13T11:03:37;10.38;;;1.90;;
32445;SDS011;18899;50.748;7.102;2023-01-13T11:06:07;17.15;;;2.15;;
32445;SDS011;18899;50.748;7.102;2023-01-13T11:08:40;12.60;;;1.70;;
32445;SDS011;18899;50.748;7.102;2023-01-13T11:11:25;8.85;;;1.30;;
32445;SDS011;18899;50.748;7.102;2023-01-13T11:13:58;9.98;;;1.70;;
32445;SDS011;18899;50.748;7.102;2023-01-13T11:16:45;9.32;;;1.67;;
32445;SDS011;18899;50.748;7.102;2023-01-13T11:19:16;12.30;;;1.92;;
32445;SDS011;18899;50.748;7.102;2023-01-13T11:21:47;10.35;;;2.03;;
32445;SDS011;18899;50.748;7.102;2023-01-13T11:24:22;11.15;;;1.88;;
32445;SDS011;18899;50.748;7.102;2023-01-13T11:29:56;14.30;;;2.07;;
32445;SDS011;18899;50.748;7.102;2023-01-13T11:32:26;7.82;;;1.50;;
32445;SDS011;18899;50.748;7.102;2023-01-13T11:35:01;8.47;;;1.83;;
32445;SDS011;18899;50.748;7.102;2023-01-13T11:37:35;15.48;;;1.70;;
32445;SDS011;18899;50.748;7.102;2023-01-13T11:40:15;13.20;;;2.17;;
32445;SDS011;18899;50.748;7.102;2023-01-13T11:42:45;12.30;;;1.80;;
32445;SDS011;18899;50.748;7.102;2023-01-13T11:48:13;10.82;;;2.08;;
32445;SDS011;18899;50.748;7.102;2023-01-13T11:50:53;10.68;;;1.83;;
32445;SDS011;18899;50.748;7.102;2023-01-13T12:02:13;12.55;;;1.77;;
32445;SDS011;18899;50.748;7.102;2023-01-13T12:05:02;8.73;;;2.00;;
32445;SDS011;18899;50.748;7.102;2023-01-13T12:07:35;13.05;;;2.15;;
32445;SDS011;18899;50.748;7.102;2023-01-13T12:10:11;10.40;;;1.92;;
32445;SDS011;18899;50.748;7.102;2023-01-13T12:12:52;9.35;;;1.63;;
32445;SDS011;18899;50.748;7.102;2023-01-13T12:15:30;7.40;;;1.33;;
32445;SDS011;18899;50.748;7.102;2023-01-13T12:18:27;11.07;;;1.60;;
32445;SDS011;18899;50.748;7.102;2023-01-13T12:21:19;11.32;;;1.25;;
32445;SDS011;18899;50.748;7.102;2023-01-13T12:26:56;9.02;;;1.42;;
32445;SDS011;18899;50.748;7.102;2023-01-13T12:29:41;4.13;;;1.42;;
32445;SDS011;18899;50.748;7.102;2023-01-13T12:32:15;7.82;;;1.35;;
32445;SDS011;18899;50.748;7.102;2023-01-13T12:34:50;8.35;;;1.58;;
32445;SDS011;18899;50.748;7.102;2023-01-13T12:40:52;22.88;;;2.20;;
32445;SDS011;18899;50.748;7.102;2023-01-13T12:43:30;9.32;;;1.73;;
32445;SDS011;18899;50.748;7.102;2023-01-13T12:51:24;9.43;;;1.83;;
32445;SDS011;18899;50.748;7.102;2023-01-13T12:53:56;12.70;;;1.88;;
32445;SDS011;18899;50.748;7.102;2023-01-13T13:01:41;8.05;;;1.70;;
32445;SDS011;18899;50.748;7.102;2023-01-13T13:06:38;16.00;;;2.22;;
32445;SDS011;18899;50.748;7.102;2023-01-13T13:09:25;7.88;;;1.77;;
32445;SDS011;18899;50.748;7.102;2023-01-13T13:11:57;11.75;;;2.33;;
32445;SDS011;18899;50.748;7.102;2023-01-13T13:19:55;8.15;;;1.45;;
32445;SDS011;18899;50.748;7.102;2023-01-13T13:27:27;13.70;;;1.80;;
32445;SDS011;18899;50.748;7.102;2023-01-13T13:35:25;8.00;;;1.38;;
32445;SDS011;18899;50.748;7.102;2023-01-13T13:41:22;8.15;;;1.30;;
32445;SDS011;18899;50.748;7.102;2023-01-13T13:44:16;8.18;;;1.75;;
32445;SDS011;18899;50.748;7.102;2023-01-13T13:47:03;7.95;;;1.23;;
32445;SDS011;18899;50.748;7.102;2023-01-13T13:49:40;16.90;;;2.03;;
32445;SDS011;18899;50.748;7.102;2023-01-13T13:54:38;9.38;;;1.70;;
32445;SDS011;18899;50.748;7.102;2023-01-13T13:57:17;9.88;;;1.23;;
32445;SDS011;18899;50.748;7.102;2023-01-13T13:59:45;12.93;;;1.50;;
32445;SDS011;18899;50.748;7.102;2023-01-13T14:02:19;13.02;;;2.15;;
32445;SDS011;18899;50.748;7.102;2023-01-13T14:04:51;10.65;;;1.95;;
32445;SDS011;18899;50.748;7.102;2023-01-13T14:07:31;9.13;;;1.35;;
32445;SDS011;18899;50.748;7.102;2023-01-13T14:10:15;9.23;;;1.95;;
32445;SDS011;18899;50.748;7.102;2023-01-13T14:12:49;7.57;;;1.35;;
32445;SDS011;18899;50.748;7.102;2023-01-13T14:15:25;8.70;;;1.50;;
32445;SDS011;18899;50.748;7.102;2023-01-13T14:17:56;9.18;;;1.38;;
32445;SDS011;18899;50.748;7.102;2023-01-13T14:20:27;8.60;;;1.33;;
32445;SDS011;18899;50.748;7.102;2023-01-13T14:22:53;14.13;;;1.38;;
32445;SDS011;18899;50.748;7.102;2023-01-13T14:25:29;11.25;;;1.70;;
32445;SDS011;18899;50.748;7.102;2023-01-13T14:27:57;11.60;;;1.83;;
32445;SDS011;18899;50.748;7.102;2023-01-13T14:30:27;7.47;;;1.38;;
32445;SDS011;18899;50.748;7.102;2023-01-13T14:32:53;15.98;;;1.98;;
32445;SDS011;18899;50.748;7.102;2023-01-13T14:35:20;7.30;;;1.50;;
32445;SDS011;18899;50.748;7.102;2023-01-13T14:37:46;11.10;;;1.63;;
32445;SDS011;18899;50.748;7.102;2023-01-13T14:42:58;9.48;;;1.45;;
32445;SDS011;18899;50.748;7.102;2023-01-13T14:45:24;13.32;;;1.98;;
32445;SDS011;18899;50.748;7.102;2023-01-13T14:47:51;9.00;;;1.55;;
32445;SDS011;18899;50.748;7.102;2023-01-13T14:50:18;10.55;;;1.75;;
32445;SDS011;18899;50.748;7.102;2023-01-13T14:52:51;7.90;;;1.88;;
32445;SDS011;18899;50.748;7.102;2023-01-13T14:55:34;10.85;;;1.60;;
32445;SDS011;18899;50.748;7.102;2023-01-13T15:00:46;16.60;;;1.90;;
32445;SDS011;18899;50.748;7.102;2023-01-13T15:03:13;12.52;;;1.90;;
32445;SDS011;18899;50.748;7.102;2023-01-13T15:05:42;15.50;;;2.63;;
32445;SDS011;18899;50.748;7.102;2023-01-13T15:10:45;10.48;;;1.23;;
32445;SDS011;18899;50.748;7.102;2023-01-13T15:16:00;15.07;;;1.92;;
32445;SDS011;18899;50.748;7.102;2023-01-13T15:18:33;8.77;;;1.92;;
32445;SDS011;18899;50.748;7.102;2023-01-13T15:21:03;7.60;;;1.30;;
32445;SDS011;18899;50.748;7.102;2023-01-13T15:23:29;6.38;;;1.23;;
32445;SDS011;18899;50.748;7.102;2023-01-13T15:25:55;13.52;;;1.40;;
32445;SDS011;18899;50.748;7.102;2023-01-13T15:28:24;6.97;;;1.58;;
32445;SDS011;18899;50.748;7.102;2023-01-13T15:30:51;8.57;;;1.73;;
32445;SDS011;18899;50.748;7.102;2023-01-13T15:33:17;10.13;;;1.50;;
32445;SDS011;18899;50.748;7.102;2023-01-13T15:35:45;8.10;;;1.63;;
32445;SDS011;18899;50.748;7.102;2023-01-13T15:38:13;5.85;;;1.73;;
32445;SDS011;18899;50.748;7.102;2023-01-13T15:40:40;9.27;;;1.95;;
32445;SDS011;18899;50.748;7.102;2023-01-13T15:43:11;13.43;;;1.63;;
32445;SDS011;18899;50.748;7.102;2023-01-13T15:45:57;9.23;;;1.70;;
32445;SDS011;18899;50.748;7.102;2023-01-13T15:48:41;8.90;;;1.30;;
32445;SDS011;18899;50.748;7.102;2023-01-13T15:51:08;9.52;;;1.40;;
32445;SDS011;18899;50.748;7.102;2023-01-13T15:53:35;11.68;;;1.85;;
32445;SDS011;18899;50.748;7.102;2023-01-13T15:56:01;8.50;;;1.40;;
32445;SDS011;18899;50.748;7.102;2023-01-13T15:58:29;6.93;;;1.52;;
32445;SDS011;18899;50.748;7.102;2023-01-13T16:00:55;11.02;;;1.60;;
32445;SDS011;18899;50.748;7.102;2023-01-13T16:03:21;9.68;;;1.67;;
32445;SDS011;18899;50.748;7.102;2023-01-13T16:05:48;11.23;;;1.60;;
32445;SDS011;18899;50.748;7.102;2023-01-13T16:08:14;20.17;;;1.95;;
32445;SDS011;18899;50.748;7.102;2023-01-13T16:10:44;8.65;;;1.60;;
32445;SDS011;18899;50.748;7.102;2023-01-13T16:13:10;7.30;;;2.17;;
32445;SDS011;18899;50.748;7.102;2023-01-13T16:15:41;7.88;;;1.98;;
32445;SDS011;18899;50.748;7.102;2023-01-13T16:18:21;15.57;;;2.20;;
32445;SDS011;18899;50.748;7.102;2023-01-13T16:20:50;12.80;;;2.20;;
32445;SDS011;18899;50.748;7.102;2023-01-13T16:23:19;6.65;;;1.75;;
32445;SDS011;18899;50.748;7.102;2023-01-13T16:25:45;15.70;;;1.92;;
32445;SDS011;18899;50.748;7.102;2023-01-13T16:28:18;13.30;;;1.77;;
32445;SDS011;18899;50.748;7.102;2023-01-13T16:30:45;12.02;;;2.15;;
32445;SDS011;18899;50.748;7.102;2023-01-13T16:33:11;12.18;;;2.85;;
32445;SDS011;18899;50.748;7.102;2023-01-13T16:35:37;14.07;;;2.17;;
32445;SDS011;18899;50.748;7.102;2023-01-13T16:38:02;11.20;;;1.98;;
32445;SDS011;18899;50.748;7.102;2023-01-13T16:40:28;13.02;;;1.85;;
32445;SDS011;18899;50.748;7.102;2023-01-13T16:42:56;16.73;;;2.10;;
32445;SDS011;18899;50.748;7.102;2023-01-13T16:45:22;8.10;;;1.95;;
32445;SDS011;18899;50.748;7.102;2023-01-13T16:47:48;9.90;;;1.98;;
32445;SDS011;18899;50.748;7.102;2023-01-13T16:52:45;18.63;;;2.25;;
32445;SDS011;18899;50.748;7.102;2023-01-13T16:55:10;13.68;;;2.47;;
32445;SDS011;18899;50.748;7.102;2023-01-13T16:57:36;11.68;;;2.38;;
32445;SDS011;18899;50.748;7.102;2023-01-13T17:00:02;9.80;;;2.38;;
32445;SDS011;18899;50.748;7.102;2023-01-13T17:02:29;14.25;;;2.28;;
32445;SDS011;18899;50.748;7.102;2023-01-13T17:04:54;10.15;;;3.35;;
32445;SDS011;18899;50.748;7.102;2023-01-13T17:07:20;10.23;;;2.13;;
32445;SDS011;18899;50.748;7.102;2023-01-13T17:09:45;14.23;;;2.10;;
32445;SDS011;18899;50.748;7.102;2023-01-13T17:12:12;12.85;;;2.42;;
32445;SDS011;18899;50.748;7.102;2023-01-13T17:14:37;14.95;;;3.05;;
32445;SDS011;18899;50.748;7.102;2023-01-13T17:17:03;14.02;;;2.30;;
32445;SDS011;18899;50.748;7.102;2023-01-13T17:19:29;12.10;;;1.83;;
32445;SDS011;18899;50.748;7.102;2023-01-13T17:21:55;12.07;;;2.13;;
32445;SDS011;18899;50.748;7.102;2023-01-13T17:24:20;18.45;;;2.47;;
32445;SDS011;18899;50.748;7.102;2023-01-13T17:26:49;21.52;;;2.55;;